createdAt,value
2019-05-21T00:02:31.670Z,13.88
2019-05-21T00:07:35.687Z,13.50
2019-05-21T00:12:39.864Z,11.83
2019-05-21T00:17:44.084Z,13.10
2019-05-21T00:22:48.310Z,13.10
2019-05-21T00:27:52.361Z,12.80
2019-05-21T00:33:32.506Z,12.18
2019-05-21T00:39:13.032Z,12.60
2019-05-21T00:44:17.091Z,12.15
2019-05-21T00:49:21.372Z,11.83
2019-05-21T00:54:25.592Z,12.98
2019-05-21T00:59:29.532Z,12.13
2019-05-21T01:04:33.543Z,11.95
2019-05-21T01:09:37.557Z,12.93
2019-05-21T01:14:41.494Z,11.90
2019-05-21T01:19:45.444Z,11.93
2019-05-21T01:24:49.410Z,11.50
2019-05-21T01:29:53.366Z,9.43
2019-05-21T01:34:57.290Z,9.63
2019-05-21T01:40:01.245Z,10.55
2019-05-21T01:45:06.659Z,10.38
2019-05-21T01:50:10.804Z,10.00
2019-05-21T01:55:14.824Z,9.70
2019-05-21T02:00:19.042Z,11.38
2019-05-21T02:05:32.521Z,11.85
2019-05-21T02:10:29.056Z,11.57
2019-05-21T02:15:33.089Z,12.18
2019-05-21T02:20:37.321Z,11.45
2019-05-21T02:25:41.879Z,12.60
2019-05-21T02:30:45.857Z,12.65
2019-05-21T02:35:54.305Z,12.35
2019-05-21T02:40:55.611Z,12.70
2019-05-21T02:45:59.799Z,12.55
2019-05-21T02:51:03.825Z,11.08
2019-05-21T02:56:07.806Z,11.40
2019-05-21T03:01:19.041Z,10.75
2019-05-21T03:06:23.083Z,10.65
2019-05-21T03:11:27.020Z,10.78
2019-05-21T03:16:30.968Z,10.70
2019-05-21T03:21:34.905Z,11.68
2019-05-21T03:26:38.849Z,11.93
2019-05-21T03:31:42.787Z,11.60
2019-05-21T03:36:46.747Z,11.25
2019-05-21T03:41:50.792Z,13.75
2019-05-21T03:46:55.442Z,13.13
2019-05-21T03:51:59.923Z,11.15
2019-05-21T03:57:04.100Z,10.72
2019-05-21T04:02:08.167Z,10.25
2019-05-21T04:07:12.200Z,9.43
2019-05-21T04:12:16.172Z,9.98
2019-05-21T04:17:24.771Z,9.50
2019-05-21T04:22:28.740Z,8.63
2019-05-21T04:27:32.709Z,8.43
2019-05-21T04:32:36.709Z,8.65
2019-05-21T04:37:40.810Z,8.20
2019-05-21T04:42:44.749Z,8.38
2019-05-21T04:47:48.686Z,8.30
2019-05-21T04:52:52.644Z,8.98
2019-05-21T04:57:56.590Z,7.95
2019-05-21T05:03:00.552Z,8.18
2019-05-21T05:08:04.572Z,8.23
2019-05-21T05:13:08.729Z,8.45
2019-05-21T05:18:12.689Z,8.50
2019-05-21T05:23:16.655Z,7.92
2019-05-21T05:28:20.580Z,8.28
2019-05-21T05:33:24.552Z,7.85
2019-05-21T05:38:28.508Z,7.90
2019-05-21T05:43:32.449Z,8.55
2019-05-21T05:48:38.017Z,8.20
2019-05-21T05:53:57.648Z,8.90
2019-05-21T05:59:01.627Z,8.28
2019-05-21T06:04:05.562Z,7.72
2019-05-21T06:09:09.503Z,8.20
2019-05-21T06:14:13.446Z,7.47
2019-05-21T06:19:17.464Z,6.80
2019-05-21T06:24:21.409Z,7.33
2019-05-21T06:29:25.361Z,6.08
2019-05-21T06:34:29.294Z,6.78
2019-05-21T06:39:33.247Z,6.55
2019-05-21T06:44:37.179Z,7.47
2019-05-21T06:49:41.103Z,7.80
2019-05-21T06:54:45.066Z,8.48
2019-05-21T06:59:49.013Z,7.78
2019-05-21T07:04:53.011Z,8.63
2019-05-21T07:09:56.942Z,7.55
2019-05-21T07:15:00.990Z,8.53
2019-05-21T07:20:07.372Z,8.80
2019-05-21T07:25:12.336Z,8.83
2019-05-21T07:30:16.884Z,8.65
2019-05-21T07:35:20.874Z,10.15
2019-05-21T07:40:24.835Z,13.00
2019-05-21T07:45:28.908Z,16.82
2019-05-21T07:50:32.872Z,40.88
2019-05-21T07:55:36.833Z,47.43
2019-05-21T08:00:40.833Z,40.95
2019-05-21T08:05:46.484Z,85.05
2019-05-21T08:10:50.504Z,55.95
2019-05-21T08:15:54.671Z,68.57
2019-05-21T08:20:58.732Z,37.35
2019-05-21T08:26:02.744Z,26.68
2019-05-21T08:31:06.723Z,21.42
2019-05-21T08:36:10.853Z,26.60
2019-05-21T08:41:15.150Z,35.88
2019-05-21T08:46:19.122Z,22.32
2019-05-21T08:51:23.099Z,19.10
2019-05-21T08:56:27.129Z,15.20
2019-05-21T09:01:31.174Z,25.82
2019-05-21T09:06:35.117Z,32.00
2019-05-21T09:11:39.093Z,27.77
2019-05-21T09:16:43.094Z,29.82
2019-05-21T09:21:47.060Z,26.73
2019-05-21T09:26:51.021Z,24.37
2019-05-21T09:31:55.022Z,22.58
2019-05-21T09:36:58.961Z,25.35
2019-05-21T09:42:02.895Z,20.82
2019-05-21T09:47:06.842Z,23.90
2019-05-21T09:52:10.903Z,26.62
2019-05-21T09:57:16.521Z,30.57
2019-05-21T10:02:22.279Z,30.80
2019-05-21T10:07:38.889Z,26.00
2019-05-21T10:12:31.827Z,30.17
2019-05-21T10:17:35.775Z,28.12
2019-05-21T10:22:39.727Z,35.55
2019-05-21T10:27:43.661Z,39.65
2019-05-21T10:32:47.609Z,29.82
2019-05-21T10:37:54.945Z,28.62
2019-05-21T10:42:57.266Z,25.15
2019-05-21T10:48:01.216Z,24.43
2019-05-21T10:53:05.234Z,22.58
2019-05-21T10:58:09.220Z,19.23
2019-05-21T11:03:17.597Z,17.98
2019-05-21T11:08:24.118Z,17.73
2019-05-21T11:13:27.567Z,15.18
2019-05-21T11:18:31.657Z,14.38
2019-05-21T11:23:35.628Z,12.53
2019-05-21T11:28:39.664Z,10.58
2019-05-21T11:33:44.664Z,9.63
2019-05-21T11:38:48.684Z,8.80
2019-05-21T11:43:53.727Z,7.97
2019-05-21T11:48:57.697Z,8.45
2019-05-21T11:54:01.730Z,6.65
2019-05-21T11:59:05.808Z,5.60
2019-05-21T12:04:09.788Z,5.95
2019-05-21T12:09:13.862Z,5.05
2019-05-21T12:14:17.906Z,4.62
2019-05-21T12:19:21.916Z,4.50
2019-05-21T12:24:27.579Z,4.70
2019-05-21T12:29:34.222Z,6.12
2019-05-21T12:34:39.050Z,6.25
2019-05-21T12:39:43.153Z,7.10
2019-05-21T12:44:47.191Z,8.68
2019-05-21T12:49:51.134Z,7.35
2019-05-21T12:54:55.089Z,6.40
2019-05-21T12:59:59.095Z,5.90
2019-05-21T13:05:03.206Z,5.75
2019-05-21T13:10:08.298Z,5.03
2019-05-21T13:15:12.541Z,4.72
2019-05-21T13:20:17.475Z,4.42
2019-05-21T13:25:21.438Z,3.95
2019-05-21T13:30:25.581Z,2.92
2019-05-21T13:35:29.488Z,3.33
2019-05-21T13:40:34.410Z,2.50
2019-05-21T13:45:38.460Z,2.80
2019-05-21T13:50:42.401Z,1.42
2019-05-21T13:55:46.356Z,0.80
2019-05-21T14:00:56.486Z,1.07
2019-05-21T14:06:00.386Z,1.77
2019-05-21T14:11:05.284Z,2.12
2019-05-21T14:16:09.223Z,3.08
2019-05-21T14:21:13.156Z,2.70
2019-05-21T14:26:17.135Z,3.15
2019-05-21T14:31:21.155Z,3.05
2019-05-21T14:36:25.271Z,3.25
2019-05-21T14:41:29.568Z,3.58
2019-05-21T14:46:33.756Z,3.33
2019-05-21T14:51:37.700Z,3.42
2019-05-21T14:56:46.689Z,3.25
2019-05-21T15:01:47.290Z,3.37
2019-05-21T15:06:51.379Z,3.80
2019-05-21T15:11:55.466Z,4.45
2019-05-21T15:16:59.535Z,4.80
2019-05-21T15:22:03.668Z,5.03
2019-05-21T15:27:07.684Z,4.72
2019-05-21T15:32:11.842Z,4.67
2019-05-21T15:37:15.791Z,4.55
2019-05-21T15:42:19.749Z,3.70
2019-05-21T15:47:23.705Z,3.80
2019-05-21T15:52:27.760Z,2.95
2019-05-21T15:57:31.755Z,2.92
2019-05-21T16:02:37.072Z,2.58
2019-05-21T16:07:41.059Z,2.52
2019-05-21T16:12:45.153Z,2.30
2019-05-21T16:17:49.120Z,3.00
2019-05-21T16:22:53.045Z,2.75
2019-05-21T16:27:56.985Z,2.67
2019-05-21T16:33:00.919Z,3.05
2019-05-21T16:38:05.131Z,3.25
2019-05-21T16:43:09.146Z,3.12
2019-05-21T16:48:13.072Z,3.15
2019-05-21T16:53:17.304Z,2.87
2019-05-21T16:58:21.457Z,3.08
2019-05-21T17:03:25.562Z,3.30
2019-05-21T17:08:29.568Z,2.90
2019-05-21T17:13:33.526Z,3.00
2019-05-21T17:18:37.450Z,3.00
2019-05-21T17:23:41.382Z,3.30
2019-05-21T17:28:45.318Z,3.62
2019-05-21T17:33:49.244Z,3.27
2019-05-21T17:38:53.345Z,3.10
2019-05-21T17:43:57.371Z,3.10
2019-05-21T17:49:01.430Z,3.27
2019-05-21T17:54:05.529Z,3.12
2019-05-21T17:59:09.586Z,3.40
2019-05-21T18:04:14.030Z,2.85
2019-05-21T18:09:19.941Z,2.80
2019-05-21T18:14:25.194Z,3.30
2019-05-21T18:19:29.324Z,2.65
2019-05-21T18:24:33.756Z,2.90
2019-05-21T18:29:37.746Z,2.77
2019-05-21T18:34:41.957Z,2.77
2019-05-21T18:39:46.016Z,2.92
2019-05-21T18:44:50.003Z,2.90
2019-05-21T18:49:53.968Z,2.70
2019-05-21T18:54:58.014Z,2.75
2019-05-21T19:00:01.940Z,3.27
2019-05-21T19:05:09.037Z,2.80
2019-05-21T19:10:13.601Z,3.08
2019-05-21T19:15:18.243Z,3.10
2019-05-21T19:20:22.181Z,3.22
2019-05-21T19:25:26.133Z,3.12
2019-05-21T19:30:30.787Z,3.60
2019-05-21T19:35:34.831Z,3.30
2019-05-21T19:40:38.795Z,3.45
2019-05-21T19:45:42.938Z,3.12
2019-05-21T19:50:46.991Z,3.40
2019-05-21T19:55:51.166Z,3.67
2019-05-21T20:00:55.771Z,3.85
2019-05-21T20:06:01.122Z,3.12
2019-05-21T20:11:06.636Z,3.00
2019-05-21T20:16:11.653Z,2.45
2019-05-21T20:21:15.910Z,2.70
2019-05-21T20:26:22.107Z,2.45
2019-05-21T20:31:26.047Z,2.35
2019-05-21T20:36:31.494Z,2.58
2019-05-21T20:41:36.241Z,2.50
2019-05-21T20:46:41.269Z,2.50
2019-05-21T20:51:46.105Z,2.45
2019-05-21T20:56:50.934Z,2.40
2019-05-21T21:01:54.873Z,2.10
2019-05-21T21:07:01.665Z,2.30
2019-05-21T21:12:06.196Z,2.37
2019-05-21T21:17:11.738Z,2.30
2019-05-21T21:22:15.888Z,2.47
2019-05-21T21:27:20.290Z,2.00
2019-05-21T21:32:24.435Z,2.12
2019-05-21T21:37:28.788Z,2.35
2019-05-21T21:42:33.305Z,1.90
2019-05-21T21:47:38.285Z,2.05
2019-05-21T21:52:42.539Z,1.90
2019-05-21T21:57:46.574Z,2.25
2019-05-21T22:02:51.352Z,1.85
2019-05-21T22:07:55.297Z,1.65
2019-05-21T22:12:59.547Z,2.80
2019-05-21T22:18:04.060Z,1.87
2019-05-21T22:23:10.060Z,2.02
2019-05-21T22:28:14.483Z,1.67
2019-05-21T22:33:19.555Z,2.40
2019-05-21T22:38:24.397Z,2.60
2019-05-21T22:43:30.298Z,2.02
2019-05-21T22:48:34.216Z,1.92
2019-05-21T22:53:38.150Z,2.15
2019-05-21T22:58:42.155Z,2.27
2019-05-21T23:03:46.416Z,2.50
2019-05-21T23:08:50.455Z,2.75
2019-05-21T23:13:54.390Z,3.02
2019-05-21T23:18:58.710Z,2.90
2019-05-21T23:24:03.759Z,3.33
2019-05-21T23:29:07.701Z,2.92
2019-05-21T23:34:13.257Z,3.50
2019-05-21T23:39:18.856Z,3.30
2019-05-21T23:44:23.097Z,2.85
2019-05-21T23:49:27.231Z,2.58
2019-05-21T23:54:31.184Z,2.95
2019-05-21T23:59:35.141Z,2.90
